createdAt,value
2018-06-23T00:00:30.426Z,83.70
2018-06-23T00:02:59.482Z,83.30
2018-06-23T00:07:57.161Z,83.30
2018-06-23T00:12:54.842Z,85.30
2018-06-23T00:15:23.909Z,84.10
2018-06-23T00:17:52.957Z,84.30
2018-06-23T00:20:22.248Z,83.80
2018-06-23T00:22:51.635Z,84.20
2018-06-23T00:25:26.068Z,84.60
2018-06-23T00:27:55.548Z,84.80
2018-06-23T00:30:24.624Z,84.90
2018-06-23T00:32:53.851Z,85.40
2018-06-23T00:35:23.077Z,86.10
2018-06-23T00:37:52.097Z,87.20
2018-06-23T00:40:21.105Z,87.40
2018-06-23T00:42:50.142Z,87.50
2018-06-23T00:45:19.206Z,87.70
2018-06-23T00:47:48.255Z,87.70
2018-06-23T00:50:17.281Z,87.60
2018-06-23T00:52:46.313Z,87.90
2018-06-23T00:55:15.333Z,88.10
2018-06-23T00:57:44.361Z,88.30
2018-06-23T01:00:13.352Z,88.20
2018-06-23T01:02:42.416Z,88.60
2018-06-23T01:05:11.404Z,89.30
2018-06-23T01:07:40.653Z,89.70
2018-06-23T01:10:09.651Z,89.80
2018-06-23T01:12:38.643Z,90.00
2018-06-23T01:15:07.740Z,90.00
2018-06-23T01:17:36.882Z,90.00
2018-06-23T01:20:05.928Z,90.00
2018-06-23T01:22:34.943Z,89.60
2018-06-23T01:25:03.982Z,89.50
2018-06-23T01:27:32.993Z,89.90
2018-06-23T01:30:02.001Z,89.60
2018-06-23T01:32:31.112Z,89.40
2018-06-23T01:35:00.105Z,89.40
2018-06-23T01:37:29.258Z,89.70
2018-06-23T01:39:58.260Z,89.50
2018-06-23T01:42:27.257Z,88.70
2018-06-23T01:44:56.288Z,88.20
2018-06-23T01:47:25.325Z,87.40
2018-06-23T01:49:54.324Z,87.30
2018-06-23T01:52:23.320Z,87.40
2018-06-23T01:54:52.344Z,87.10
2018-06-23T01:57:21.345Z,87.50
2018-06-23T01:59:50.533Z,87.30
2018-06-23T02:02:19.545Z,87.20
2018-06-23T02:04:48.580Z,87.00
2018-06-23T02:07:17.610Z,86.80
2018-06-23T02:09:46.631Z,87.20
2018-06-23T02:12:15.681Z,86.60
2018-06-23T02:14:50.212Z,86.50
2018-06-23T02:17:24.508Z,87.00
2018-06-23T02:19:58.873Z,86.40
2018-06-23T02:22:33.235Z,86.90
2018-06-23T02:25:07.569Z,86.70
2018-06-23T02:27:42.001Z,86.20
2018-06-23T02:30:16.405Z,85.70
2018-06-23T02:32:47.396Z,85.30
2018-06-23T02:35:16.398Z,84.60
2018-06-23T02:37:45.393Z,85.10
2018-06-23T02:40:14.625Z,84.30
2018-06-23T02:42:43.612Z,83.90
2018-06-23T02:45:12.625Z,83.60
2018-06-23T02:47:41.661Z,83.70
2018-06-23T02:50:10.662Z,82.60
2018-06-23T02:52:39.680Z,81.70
2018-06-23T02:55:08.717Z,82.10
2018-06-23T02:57:37.743Z,82.20
2018-06-23T03:00:07.002Z,81.70
2018-06-23T03:02:36.000Z,82.40
2018-06-23T03:05:05.134Z,82.30
2018-06-23T03:07:34.137Z,82.50
2018-06-23T03:10:03.193Z,82.70
2018-06-23T03:12:32.237Z,82.90
2018-06-23T03:15:01.494Z,83.00
2018-06-23T03:17:30.496Z,83.60
2018-06-23T03:19:59.485Z,83.90
2018-06-23T03:22:28.604Z,84.00
2018-06-23T03:24:57.613Z,84.00
2018-06-23T03:27:26.673Z,84.00
2018-06-23T03:29:55.721Z,84.50
2018-06-23T03:32:24.724Z,82.80
2018-06-23T03:34:53.765Z,83.50
2018-06-23T03:37:22.764Z,82.80
2018-06-23T03:39:51.809Z,82.40
2018-06-23T03:42:20.841Z,81.80
2018-06-23T03:44:49.849Z,82.10
2018-06-23T03:47:18.863Z,81.40
2018-06-23T03:49:48.141Z,81.10
2018-06-23T03:52:17.144Z,81.20
2018-06-23T03:54:46.154Z,80.80
2018-06-23T03:57:15.189Z,80.70
2018-06-23T03:59:44.197Z,80.50
2018-06-23T04:02:13.226Z,80.00
2018-06-23T04:04:42.317Z,80.50
2018-06-23T04:07:11.323Z,79.70
2018-06-23T04:09:40.339Z,79.50
2018-06-23T04:12:09.575Z,80.10
2018-06-23T04:14:38.552Z,80.20
2018-06-23T04:17:07.549Z,80.30
2018-06-23T04:19:36.589Z,80.20
2018-06-23T04:22:05.680Z,80.00
2018-06-23T04:24:34.704Z,79.80
2018-06-23T04:27:03.787Z,80.10
2018-06-23T04:29:32.846Z,80.00
2018-06-23T04:32:01.977Z,80.00
2018-06-23T04:34:30.985Z,80.40
2018-06-23T04:37:00.038Z,79.60
2018-06-23T04:39:35.619Z,78.70
2018-06-23T04:42:04.623Z,79.20
2018-06-23T04:44:33.819Z,79.00
2018-06-23T04:47:02.992Z,77.90
2018-06-23T04:49:32.061Z,78.20
2018-06-23T04:52:01.064Z,78.80
2018-06-23T04:54:30.113Z,79.50
2018-06-23T04:56:59.152Z,80.00
2018-06-23T04:59:28.215Z,80.00
2018-06-23T05:01:57.229Z,79.60
2018-06-23T05:04:26.353Z,79.40
2018-06-23T05:06:56.238Z,79.80
2018-06-23T05:09:26.308Z,79.10
2018-06-23T05:11:55.486Z,79.10
2018-06-23T05:14:24.593Z,78.00
2018-06-23T05:16:53.650Z,78.10
2018-06-23T05:19:22.666Z,78.50
2018-06-23T05:21:51.996Z,78.20
2018-06-23T05:24:21.017Z,77.70
2018-06-23T05:26:50.089Z,78.00
2018-06-23T05:29:19.424Z,77.90
2018-06-23T05:31:48.513Z,78.80
2018-06-23T05:34:17.529Z,79.40
2018-06-23T05:36:46.554Z,79.80
2018-06-23T05:39:15.618Z,79.50
2018-06-23T05:41:44.697Z,79.50
2018-06-23T05:44:13.733Z,79.90
2018-06-23T05:46:42.811Z,79.40
2018-06-23T05:49:11.884Z,78.90
2018-06-23T05:51:40.896Z,79.80
2018-06-23T05:54:09.990Z,79.60
2018-06-23T05:56:39.024Z,80.10
2018-06-23T05:59:08.066Z,81.20
2018-06-23T06:01:37.123Z,80.70
2018-06-23T06:04:06.136Z,81.60
2018-06-23T06:06:35.175Z,81.00
2018-06-23T06:09:05.987Z,81.50
2018-06-23T06:11:35.031Z,81.50
2018-06-23T06:14:04.158Z,81.50
2018-06-23T06:17:47.628Z,82.20
2018-06-23T06:20:17.018Z,82.30
2018-06-23T06:22:46.862Z,82.80
2018-06-23T06:25:16.506Z,82.90
2018-06-23T06:27:45.525Z,82.70
2018-06-23T06:30:14.561Z,82.80
2018-06-23T06:32:43.602Z,82.30
2018-06-23T06:35:12.604Z,81.50
2018-06-23T06:37:41.608Z,81.80
2018-06-23T06:40:10.604Z,82.40
2018-06-23T06:42:39.690Z,81.90
2018-06-23T06:45:08.706Z,82.50
2018-06-23T06:47:37.768Z,81.60
2018-06-23T06:50:06.787Z,81.90
2018-06-23T06:52:35.801Z,80.30
2018-06-23T06:55:04.865Z,80.10
2018-06-23T06:57:33.862Z,80.70
2018-06-23T07:00:02.935Z,79.70
2018-06-23T07:02:32.133Z,80.10
2018-06-23T07:05:01.142Z,79.80
2018-06-23T07:07:30.132Z,79.30
2018-06-23T07:09:59.169Z,79.90
2018-06-23T07:12:28.302Z,79.50
2018-06-23T07:14:57.323Z,79.30
2018-06-23T07:17:26.477Z,80.30
2018-06-23T07:19:55.719Z,79.50
2018-06-23T07:22:24.723Z,79.50
2018-06-23T07:24:53.721Z,80.90
2018-06-23T07:27:22.849Z,81.00
2018-06-23T07:29:51.893Z,81.30
2018-06-23T07:32:20.909Z,81.20
2018-06-23T07:34:50.116Z,81.30
2018-06-23T07:37:19.209Z,81.30
2018-06-23T07:39:48.245Z,80.90
2018-06-23T07:47:18.177Z,82.40
2018-06-23T07:49:47.191Z,81.70
2018-06-23T07:52:16.224Z,81.40
2018-06-23T07:54:45.308Z,81.30
2018-06-23T07:57:14.311Z,80.90
2018-06-23T07:59:43.513Z,82.00
2018-06-23T08:02:12.517Z,82.60
2018-06-23T08:04:41.708Z,82.10
2018-06-23T08:07:10.789Z,82.20
2018-06-23T08:09:39.794Z,82.10
2018-06-23T08:12:08.837Z,81.80
2018-06-23T08:14:37.862Z,82.60
2018-06-23T08:17:06.956Z,81.30
2018-06-23T08:19:36.062Z,81.10
2018-06-23T08:22:05.094Z,79.60
2018-06-23T08:24:34.120Z,80.60
2018-06-23T08:27:03.234Z,81.00
2018-06-23T08:29:32.236Z,82.20
2018-06-23T08:32:01.315Z,82.60
2018-06-23T08:34:30.280Z,81.60
2018-06-23T08:39:27.941Z,83.60
2018-06-23T08:41:56.952Z,81.20
2018-06-23T08:44:25.990Z,82.00
2018-06-23T08:46:54.998Z,80.80
2018-06-23T08:49:25.749Z,81.20
2018-06-23T08:51:54.748Z,82.20
2018-06-23T08:54:23.740Z,82.90
2018-06-23T08:56:52.887Z,84.30
2018-06-23T08:59:22.311Z,84.80
2018-06-23T09:01:51.715Z,85.50
2018-06-23T09:04:20.738Z,86.30
2018-06-23T09:06:49.769Z,86.10
2018-06-23T09:09:18.857Z,84.90
2018-06-23T09:11:47.919Z,84.00
2018-06-23T09:14:16.957Z,83.70
2018-06-23T09:16:46.037Z,84.10
2018-06-23T09:19:15.154Z,83.70
2018-06-23T09:21:44.172Z,83.70
2018-06-23T09:24:13.223Z,83.40
2018-06-23T09:26:42.233Z,83.90
2018-06-23T09:29:11.417Z,82.70
2018-06-23T09:31:40.567Z,81.40
2018-06-23T09:34:09.567Z,80.80
2018-06-23T09:36:38.604Z,80.70
2018-06-23T09:39:09.329Z,78.70
2018-06-23T09:41:38.329Z,80.10
2018-06-23T09:44:07.789Z,80.20
2018-06-23T09:46:37.465Z,80.90
2018-06-23T09:49:06.549Z,80.90
2018-06-23T09:51:35.825Z,82.00
2018-06-23T09:54:05.332Z,80.40
2018-06-23T09:56:34.364Z,80.30
2018-06-23T09:59:03.417Z,80.90
2018-06-23T10:01:32.476Z,80.00
2018-06-23T10:04:01.794Z,79.50
2018-06-23T10:06:30.845Z,78.80
2018-06-23T10:08:59.849Z,80.00
2018-06-23T10:11:28.905Z,79.60
2018-06-23T10:13:57.970Z,80.00
2018-06-23T10:16:27.109Z,80.50
2018-06-23T10:18:56.123Z,78.30
2018-06-23T10:21:25.616Z,78.70
2018-06-23T10:23:54.811Z,80.20
2018-06-23T10:26:25.193Z,78.80
2018-06-23T10:28:55.018Z,78.40
2018-06-23T10:31:24.034Z,75.70
2018-06-23T10:33:53.216Z,74.40
2018-06-23T10:36:22.277Z,73.40
2018-06-23T10:38:51.367Z,72.80
2018-06-23T10:41:20.412Z,73.70
2018-06-23T10:43:49.429Z,72.90
2018-06-23T10:46:19.921Z,72.50
2018-06-23T10:48:48.948Z,73.70
2018-06-23T10:51:18.293Z,73.70
2018-06-23T10:53:47.304Z,70.60
2018-06-23T10:56:16.574Z,69.50
2018-06-23T10:58:45.620Z,69.50
2018-06-23T11:01:14.637Z,71.10
2018-06-23T11:03:43.653Z,73.20
2018-06-23T11:06:12.717Z,73.70
2018-06-23T11:08:41.758Z,75.00
2018-06-23T11:11:10.854Z,74.30
2018-06-23T11:13:39.867Z,71.10
2018-06-23T11:16:08.954Z,73.10
2018-06-23T11:18:38.453Z,68.70
2018-06-23T11:21:07.485Z,68.20
2018-06-23T11:23:36.489Z,68.50
2018-06-23T11:26:05.592Z,67.00
2018-06-23T11:28:34.605Z,66.70
2018-06-23T11:31:03.630Z,66.10
2018-06-23T11:33:32.780Z,64.50
2018-06-23T11:36:01.947Z,66.30
2018-06-23T11:38:31.089Z,68.20
2018-06-23T11:41:00.094Z,68.10
2018-06-23T11:43:29.093Z,69.60
2018-06-23T11:45:58.116Z,70.50
2018-06-23T11:48:27.140Z,70.40
2018-06-23T11:50:56.217Z,71.10
2018-06-23T11:53:25.458Z,71.30
2018-06-23T11:55:54.493Z,71.00
2018-06-23T11:58:23.525Z,70.70
2018-06-23T12:00:52.587Z,71.30
2018-06-23T12:03:21.596Z,70.90
2018-06-23T12:05:50.657Z,69.80
2018-06-23T12:08:19.665Z,66.00
2018-06-23T12:10:48.729Z,66.10
2018-06-23T12:13:17.757Z,67.30
2018-06-23T12:15:46.782Z,68.50
2018-06-23T12:18:15.958Z,69.20
2018-06-23T12:20:44.964Z,70.70
2018-06-23T12:23:13.960Z,70.00
2018-06-23T12:25:43.044Z,71.00
2018-06-23T12:28:12.127Z,71.80
2018-06-23T12:30:41.441Z,73.80
2018-06-23T12:33:10.525Z,79.80
2018-06-23T12:35:39.530Z,81.60
2018-06-23T12:38:08.621Z,86.40
2018-06-23T12:40:37.633Z,90.50
2018-06-23T12:43:06.656Z,90.80
2018-06-23T12:45:35.653Z,90.70
2018-06-23T12:48:04.775Z,90.20
2018-06-23T12:50:33.806Z,91.30
2018-06-23T12:53:02.900Z,92.00
2018-06-23T12:55:31.918Z,90.20
2018-06-23T12:58:00.932Z,86.70
2018-06-23T13:00:30.050Z,83.00
2018-06-23T13:02:59.069Z,80.80
2018-06-23T13:05:28.128Z,80.90
2018-06-23T13:07:57.132Z,79.80
2018-06-23T13:10:26.151Z,73.70
2018-06-23T13:12:55.333Z,73.30
2018-06-23T13:15:24.321Z,73.30
2018-06-23T13:17:53.358Z,69.70
2018-06-23T13:20:22.412Z,67.30
2018-06-23T13:22:51.518Z,68.90
2018-06-23T13:25:20.611Z,66.10
2018-06-23T13:27:49.629Z,66.00
2018-06-23T13:30:18.637Z,65.00
2018-06-23T13:32:47.673Z,65.40
2018-06-23T13:35:17.429Z,65.40
2018-06-23T13:37:46.426Z,66.30
2018-06-23T13:40:15.479Z,65.60
2018-06-23T13:42:44.479Z,65.20
2018-06-23T13:45:13.473Z,63.20
2018-06-23T13:47:42.520Z,63.80
2018-06-23T13:52:40.260Z,61.30
2018-06-23T13:55:09.298Z,62.30
2018-06-23T13:57:38.349Z,62.60
2018-06-23T14:02:36.638Z,65.50
2018-06-23T14:05:05.738Z,64.10
2018-06-23T14:07:35.012Z,64.90
2018-06-23T14:10:04.436Z,63.30
2018-06-23T14:12:33.429Z,63.00
2018-06-23T14:15:02.516Z,60.70
2018-06-23T14:20:00.425Z,61.80
2018-06-23T14:27:26.834Z,60.80
2018-06-23T14:29:55.937Z,61.30
2018-06-23T14:32:24.953Z,60.60
2018-06-23T14:34:53.992Z,61.30
2018-06-23T14:37:23.013Z,62.80
2018-06-23T14:39:52.230Z,64.30
2018-06-23T14:42:21.304Z,62.80
2018-06-23T14:44:50.291Z,63.70
2018-06-23T14:47:19.353Z,64.70
2018-06-23T14:49:48.401Z,63.20
2018-06-23T14:52:17.594Z,61.30
2018-06-23T14:54:46.592Z,60.10
2018-06-23T14:57:15.779Z,60.70
2018-06-23T14:59:44.783Z,59.60
2018-06-23T15:02:13.797Z,60.40
2018-06-23T15:04:42.839Z,59.40
2018-06-23T15:07:11.845Z,59.20
2018-06-23T15:09:52.213Z,59.40
2018-06-23T15:12:32.416Z,57.60
2018-06-23T15:15:01.633Z,57.20
2018-06-23T15:17:30.881Z,58.10
2018-06-23T15:19:59.977Z,58.60
2018-06-23T15:22:28.985Z,59.30
2018-06-23T15:24:58.063Z,61.20
2018-06-23T15:27:27.124Z,63.00
2018-06-23T15:29:56.113Z,64.40
2018-06-23T15:32:25.157Z,64.60
2018-06-23T15:34:54.152Z,66.90
2018-06-23T15:37:23.201Z,69.10
2018-06-23T15:39:52.397Z,70.30
2018-06-23T15:42:21.452Z,71.00
2018-06-23T15:44:50.513Z,71.30
2018-06-23T15:47:19.555Z,73.00
2018-06-23T15:49:48.629Z,73.70
2018-06-23T15:52:17.642Z,73.70
2018-06-23T15:54:46.639Z,74.10
2018-06-23T15:57:15.849Z,74.80
2018-06-23T15:59:44.849Z,75.20
2018-06-23T16:02:13.844Z,75.80
2018-06-23T16:04:42.909Z,75.10
2018-06-23T16:07:11.933Z,74.90
2018-06-23T16:09:40.969Z,76.10
2018-06-23T16:12:10.011Z,77.20
2018-06-23T16:14:39.053Z,77.80
2018-06-23T16:17:08.103Z,76.90
2018-06-23T16:19:37.105Z,76.60
2018-06-23T16:22:06.180Z,77.00
2018-06-23T16:24:35.268Z,77.10
2018-06-23T16:27:04.328Z,76.90
2018-06-23T16:29:33.397Z,76.60
2018-06-23T16:32:02.493Z,74.70
2018-06-23T16:34:31.652Z,75.50
2018-06-23T16:37:00.617Z,75.10
2018-06-23T16:39:29.647Z,75.60
2018-06-23T16:41:58.736Z,75.50
2018-06-23T16:44:27.748Z,76.20
2018-06-23T16:46:56.753Z,74.80
2018-06-23T16:49:26.014Z,75.40
2018-06-23T16:51:55.016Z,75.40
2018-06-23T16:54:24.073Z,75.30
2018-06-23T16:56:53.104Z,75.60
2018-06-23T16:59:22.096Z,76.40
2018-06-23T17:01:51.084Z,77.10
2018-06-23T17:04:20.136Z,76.90
2018-06-23T17:06:55.031Z,76.40
2018-06-23T17:09:24.071Z,76.50
2018-06-23T17:11:53.052Z,76.00
2018-06-23T17:14:22.084Z,76.10
2018-06-23T17:16:51.129Z,75.70
2018-06-23T17:19:20.150Z,76.10
2018-06-23T17:21:49.153Z,76.20
2018-06-23T17:24:18.308Z,76.50
2018-06-23T17:26:47.321Z,76.50
2018-06-23T17:29:16.321Z,76.20
2018-06-23T17:31:45.370Z,75.70
2018-06-23T17:34:14.385Z,75.90
2018-06-23T17:36:44.241Z,75.60
2018-06-23T17:39:13.243Z,75.10
2018-06-23T17:41:42.286Z,75.90
2018-06-23T17:44:11.330Z,77.00
2018-06-23T17:46:40.333Z,78.00
2018-06-23T17:49:09.389Z,78.50
2018-06-23T17:51:38.805Z,79.00
2018-06-23T17:54:07.696Z,79.30
2018-06-23T17:56:36.842Z,80.10
2018-06-23T17:59:06.074Z,80.10
2018-06-23T18:01:35.121Z,80.50
2018-06-23T18:04:04.478Z,81.30
2018-06-23T18:06:33.529Z,81.90
2018-06-23T18:09:02.567Z,82.40
2018-06-23T18:11:31.572Z,83.00
2018-06-23T18:14:00.860Z,82.80
2018-06-23T18:18:58.773Z,84.60
2018-06-23T18:23:56.405Z,86.10
2018-06-23T18:26:25.443Z,85.90
2018-06-23T18:28:54.501Z,86.10
2018-06-23T18:31:23.533Z,86.20
2018-06-23T18:33:52.535Z,87.00
2018-06-23T18:36:21.605Z,88.10
2018-06-23T18:38:50.609Z,88.70
2018-06-23T18:41:19.705Z,89.50
2018-06-23T18:43:48.721Z,89.50
2018-06-23T18:46:17.730Z,89.60
2018-06-23T18:48:46.925Z,89.50
2018-06-23T18:51:15.939Z,90.00
2018-06-23T18:53:44.990Z,90.50
2018-06-23T18:56:14.064Z,90.70
2018-06-23T18:58:43.338Z,90.60
2018-06-23T19:01:12.453Z,90.70
2018-06-23T19:03:41.530Z,91.00
2018-06-23T19:06:10.541Z,91.00
2018-06-23T19:08:39.783Z,91.30
2018-06-23T19:11:08.928Z,91.40
2018-06-23T19:13:38.161Z,91.50
2018-06-23T19:16:07.213Z,91.30
2018-06-23T19:18:36.222Z,91.20
2018-06-23T19:21:05.653Z,91.10
2018-06-23T19:23:34.673Z,91.00
2018-06-23T19:26:03.741Z,91.20
2018-06-23T19:28:32.779Z,91.30
2018-06-23T19:31:01.785Z,91.30
2018-06-23T19:33:30.829Z,91.70
2018-06-23T19:35:59.889Z,91.90
2018-06-23T19:38:29.790Z,92.00
2018-06-23T19:40:58.832Z,92.20
2018-06-23T19:43:27.877Z,92.30
2018-06-23T19:45:56.929Z,92.20
2018-06-23T19:48:26.074Z,92.10
2018-06-23T19:50:55.131Z,92.30
2018-06-23T19:53:24.149Z,92.30
2018-06-23T19:55:53.164Z,92.50
2018-06-23T19:58:22.226Z,92.60
2018-06-23T20:00:51.238Z,92.40
2018-06-23T20:03:20.281Z,92.40
2018-06-23T20:05:49.309Z,92.40
2018-06-23T20:08:18.381Z,92.40
2018-06-23T20:10:47.409Z,92.50
2018-06-23T20:13:16.572Z,92.50
2018-06-23T20:15:45.621Z,92.70
2018-06-23T20:18:14.640Z,92.80
2018-06-23T20:20:43.637Z,92.70
2018-06-23T20:23:12.677Z,92.70
2018-06-23T20:25:41.685Z,92.70
2018-06-23T20:28:10.797Z,92.80
2018-06-23T20:30:39.827Z,92.90
2018-06-23T20:33:08.873Z,92.90
2018-06-23T20:35:37.908Z,93.10
2018-06-23T20:40:35.653Z,93.30
2018-06-23T20:43:05.241Z,93.10
2018-06-23T20:45:34.352Z,93.10
2018-06-23T20:48:03.502Z,93.40
2018-06-23T20:50:32.577Z,93.50
2018-06-23T20:53:01.636Z,93.40
2018-06-23T20:55:30.912Z,93.40
2018-06-23T20:57:59.961Z,93.60
2018-06-23T21:00:29.012Z,93.90
2018-06-23T21:02:58.120Z,94.00
2018-06-23T21:05:27.126Z,94.20
2018-06-23T21:07:56.177Z,94.30
2018-06-23T21:10:39.828Z,94.50
2018-06-23T21:13:09.009Z,94.70
2018-06-23T21:15:38.097Z,94.90
2018-06-23T21:18:07.248Z,94.90
2018-06-23T21:20:36.289Z,94.80
2018-06-23T21:25:34.021Z,94.60
2018-06-23T21:28:03.089Z,94.60
2018-06-23T21:30:32.628Z,94.50
2018-06-23T21:33:01.671Z,94.60
2018-06-23T21:35:30.656Z,94.70
2018-06-23T21:37:59.840Z,94.80
2018-06-23T21:42:57.502Z,94.70
2018-06-23T21:45:26.546Z,94.70
2018-06-23T21:50:24.268Z,94.80
2018-06-23T21:52:53.273Z,94.80
2018-06-23T21:55:22.279Z,94.80
2018-06-23T21:57:51.321Z,95.10
2018-06-23T22:00:35.713Z,95.10
2018-06-23T22:03:05.766Z,95.20
2018-06-23T22:05:34.984Z,95.30
2018-06-23T22:08:04.379Z,95.40
2018-06-23T22:10:33.380Z,95.50
2018-06-23T22:13:02.450Z,95.40
2018-06-23T22:15:31.479Z,95.30
2018-06-23T22:18:00.520Z,95.50
2018-06-23T22:22:58.248Z,95.40
2018-06-23T22:25:27.249Z,95.20
2018-06-23T22:27:56.265Z,95.30
2018-06-23T22:30:25.349Z,95.20
2018-06-23T22:32:54.470Z,95.10
2018-06-23T22:35:23.504Z,95.10
2018-06-23T22:37:52.544Z,95.10
2018-06-23T22:40:21.716Z,95.20
2018-06-23T22:42:50.768Z,95.40
2018-06-23T22:45:19.804Z,95.20
2018-06-23T22:47:48.813Z,95.20
2018-06-23T22:50:17.868Z,95.30
2018-06-23T22:52:46.928Z,95.30
2018-06-23T22:55:15.968Z,95.30
2018-06-23T22:57:45.001Z,95.60
2018-06-23T23:00:14.633Z,95.60
2018-06-23T23:02:44.228Z,95.40
2018-06-23T23:05:13.229Z,95.60
2018-06-23T23:07:42.297Z,95.60
2018-06-23T23:10:11.724Z,95.70
2018-06-23T23:12:41.158Z,96.00
2018-06-23T23:15:10.137Z,96.20
2018-06-23T23:17:39.136Z,96.10
2018-06-23T23:20:08.183Z,96.20
2018-06-23T23:22:37.172Z,96.30
2018-06-23T23:25:06.258Z,96.20
2018-06-23T23:27:35.296Z,96.10
2018-06-23T23:30:06.224Z,96.00
2018-06-23T23:32:35.307Z,96.30
2018-06-23T23:37:33.036Z,96.50
2018-06-23T23:40:02.124Z,96.40
2018-06-23T23:42:31.134Z,96.50
2018-06-23T23:45:00.377Z,96.40
2018-06-23T23:47:29.377Z,96.70
2018-06-23T23:49:58.381Z,96.90
2018-06-23T23:52:27.638Z,97.10
2018-06-23T23:54:56.688Z,97.00
2018-06-23T23:57:25.701Z,96.90
2018-06-23T23:59:54.753Z,97.00
